Flight Track Log - Related Links

Times and Time Zones

All times are in EDT time to prevent confusion due to time zone crossing. See the AAL1374 flight status page for this flight to view local times or setup timezone preferences in your user account.

Time Position Orientation Groundspeed Altitude Reporting Facility
EDT Latitude Longitude Course Direction KTS MPH feet Rate Location/Type
Thu 02:18:46 PM 32.8833 -97.0333 84° East 155 178 1,400  Level Dallas / Fort Worth TRACON
Thu 02:19:40 PM 32.8333 -97.0000 151° Southeast 217 250 2,600 1,684 Climbing Dallas / Fort Worth TRACON
Thu 02:20:40 PM 32.7667 -96.9833 168° South 246 283 4,600 2,200 Climbing Dallas / Fort Worth TRACON
Thu 02:21:00 PM 32.6842 -96.7785 77° East  Level FlightAware Approximate
Thu 02:21:40 PM 32.7333 -96.9167 121° Southeast 267 307 7,000  Level Dallas / Fort Worth TRACON
Thu 02:22:00 PM 32.7123 -96.6291 77° East  Level FlightAware Approximate
Thu 02:22:40 PM 32.7333 -96.8333 90° East 277 319 9,500  Level Dallas / Fort Worth TRACON
Thu 02:23:00 PM 32.7365 -96.4790 84° East  Level FlightAware Approximate
Thu 02:23:40 PM 32.7500 -96.7333 79° East 308 354 11,400  Level Dallas / Fort Worth TRACON
Thu 02:24:00 PM 32.7492 -96.3266 84° East  Level FlightAware Approximate
Thu 02:25:13 PM 32.7514 -96.5736 89° East 360 414 14,400  Level Fort Worth Center
Thu 02:26:13 PM 32.7564 -96.4353 88° East 373 429 16,900 2,300 Climbing Fort Worth Center
Thu 02:27:13 PM 32.7578 -96.3192 89° East 385 443 19,000 1,950 Climbing Fort Worth Center
Thu 02:28:13 PM 32.7375 -96.1786 100° East 391 450 20,800 1,900 Climbing Fort Worth Center
Thu 02:29:13 PM 32.7156 -96.0553 102° East 411 473 22,800 1,800 Climbing Fort Worth Center
Thu 02:30:13 PM 32.6928 -95.9003 100° East 427 491 24,400 1,600 Climbing Fort Worth Center
Thu 02:31:13 PM 32.6703 -95.7672 101° East 440 506 26,000 1,600 Climbing Fort Worth Center
Thu 02:32:13 PM 32.6450 -95.6050 100° East 455 524 27,600 1,400 Climbing Fort Worth Center
Thu 02:33:13 PM 32.6197 -95.4550 101° East 461 531 28,800 1,150 Climbing Fort Worth Center
Thu 02:34:13 PM 32.6067 -95.2925 95° East 475 547 29,900 1,100 Climbing Fort Worth Center
Thu 02:35:13 PM 32.6061 -95.1322 90° East 481 554 31,000 550 Climbing Fort Worth Center
Thu 02:36:13 PM 32.6053 -94.9719 90° East 486 559 31,000  Level Fort Worth Center
Thu 02:37:13 PM 32.6733 -94.8344 60° Northeast 469 540 31,000  Level Fort Worth Center
Thu 02:38:13 PM 32.6700 -94.6789 91° East 462 532 31,000  Level Fort Worth Center
Thu 02:39:13 PM 32.6186 -94.5253 112° Southeast 466 536 31,000  Level Fort Worth Center
Thu 02:40:13 PM 32.5692 -94.3764 111° Southeast 472 543 31,000  Level Fort Worth Center
Thu 02:41:13 PM 32.5175 -94.2303 113° Southeast 482 555 31,000  Level Fort Worth Center
Thu 02:42:13 PM 32.4617 -94.0869 115° Southeast 482 555 31,000  Level Fort Worth Center
Thu 02:43:13 PM 32.3853 -93.9594 125° Southeast 482 555 31,000  Level Fort Worth Center
Thu 02:45:39 PM 32.1950 -93.6481 126° Southeast 482 555 31,000  Level Houston Center
Thu 02:46:41 PM 32.1150 -93.5175 126° Southeast 483 556 31,000  Level Houston Center
Thu 02:47:43 PM 32.0356 -93.3881 126° Southeast 485 558 31,000  Level Houston Center
Thu 02:48:45 PM 31.9558 -93.2603 126° Southeast 484 557 31,000  Level Houston Center
Thu 02:49:47 PM 31.8747 -93.1319 127° Southeast 487 560 31,000  Level Houston Center
Thu 02:50:50 PM 31.7919 -92.9989 126° Southeast 490 564 31,000 -48 Level Houston Center
Thu 02:51:52 PM 31.7106 -92.8658 126° Southeast 497 572 30,900 -48 Descending Houston Center
Thu 02:52:54 PM 31.6300 -92.7389 127° Southeast 488 562 30,900 48 Level Houston Center
Thu 02:53:56 PM 31.5328 -92.5836 126° Southeast 490 564 31,000  Climbing Houston Center
Thu 02:54:58 PM 31.4506 -92.4542 127° Southeast 493 567 30,900  Descending Houston Center
Thu 02:56:00 PM 31.3689 -92.3236 126° Southeast 496 571 31,000 48 Climbing Houston Center
Thu 02:57:02 PM 31.2858 -92.1931 127° Southeast 498 573 31,000 -48 Level Houston Center
Thu 02:58:05 PM 31.2022 -92.0631 127° Southeast 499 574 30,900  Descending Houston Center
Thu 02:59:07 PM 31.1158 -91.9275 127° Southeast 501 577 31,000 48 Climbing Houston Center
Thu 03:00:09 PM 31.0331 -91.7981 127° Southeast 497 572 31,000  Level Houston Center
Thu 03:01:11 PM 30.9328 -91.6431 127° Southeast 499 574 31,000  Level Houston Center
Thu 03:02:13 PM 30.8492 -91.5139 127° Southeast 500 575 31,000  Level Houston Center
Thu 03:03:15 PM 30.7658 -91.3844 127° Southeast 500 575 31,000  Level Houston Center
Thu 03:04:18 PM 30.6731 -91.2408 127° Southeast 500 575 31,000 -48 Level Houston Center
Thu 03:05:20 PM 30.5897 -91.1131 127° Southeast 499 574 30,900  Descending Houston Center
Thu 03:06:22 PM 30.5056 -90.9875 128° Southeast 495 570 31,000 48 Climbing Houston Center
Thu 03:07:24 PM 30.4222 -90.8603 127° Southeast 496 571 31,000  Level Houston Center
Thu 03:08:26 PM 30.3378 -90.7350 128° Southeast 496 571 31,000  Level Houston Center
Thu 03:09:28 PM 30.2556 -90.6108 127° Southeast 491 565 31,000  Level Houston Center
Thu 03:10:30 PM 30.1556 -90.4600 127° Southeast 495 570 31,000  Level Houston Center
Thu 03:11:33 PM 30.0725 -90.3369 128° Southeast 492 566 31,000 -48 Level Houston Center
Thu 03:12:35 PM 29.9897 -90.2114 127° Southeast 494 568 30,900  Descending Houston Center
Thu 03:13:37 PM 29.9058 -90.0878 128° Southeast 495 570 31,000 48 Climbing Houston Center
Thu 03:14:39 PM 29.8050 -89.9425 129° Southeast 490 564 31,000  Level Houston Center
Thu 03:15:41 PM 29.7178 -89.8231 130° Southeast 489 563 31,000 -48 Level Houston Center
Thu 03:16:43 PM 29.6306 -89.7061 131° Southeast 486 559 30,900  Descending Houston Center
Thu 03:17:45 PM 29.5439 -89.5872 130° Southeast 488 562 31,000 48 Climbing Houston Center
Thu 03:18:48 PM 29.4558 -89.4647 130° Southeast 496 571 31,000  Level Houston Center
Thu 03:19:50 PM 29.3494 -89.3225 131° Southeast 493 567 31,000 -48 Level Houston Center
Thu 03:20:52 PM 29.2600 -89.2025 130° Southeast 494 568 30,900  Descending Houston Center
Thu 03:21:54 PM 29.1706 -89.0836 131° Southeast 495 570 31,000 48 Climbing Houston Center
Thu 03:22:56 PM 29.0814 -88.9644 131° Southeast 495 570 31,000  Level Houston Center
Thu 03:23:58 PM 28.9908 -88.8447 131° Southeast 497 572 31,000  Level Houston Center
Thu 03:25:00 PM 28.9017 -88.7247 130° Southeast 496 571 31,000  Level Houston Center
Thu 03:26:02 PM 28.8400 -88.5494 112° Southeast 498 573 31,000  Level Houston Center
Thu 03:27:05 PM 28.7975 -88.3997 108° East 495 570 31,000  Level Houston Center
Thu 03:28:07 PM 28.7578 -88.2467 106° East 501 577 31,000  Level Houston Center
Thu 03:29:09 PM 28.7142 -88.0986 109° East 497 572 31,000  Level Houston Center
Thu 03:30:11 PM 28.6736 -87.9489 107° East 498 573 31,000  Level Houston Center
Thu 03:31:13 PM 28.6239 -87.7708 108° East 496 571 31,000 -48 Level Houston Center
Thu 03:32:15 PM 28.5814 -87.6225 108° East 494 568 30,900 -70 Descending Houston Center
Thu 03:32:39 PM 28.5658 -87.5628 107° East 489 563 30,900 71 Level Jacksonville Center
Thu 03:33:39 PM 28.5231 -87.4142 108° East 482 555 31,000 50 Climbing Jacksonville Center
Thu 03:34:39 PM 28.4822 -87.2683 108° East 492 566 31,000  Level Jacksonville Center
Thu 03:35:39 PM 28.4392 -87.1225 109° East 491 565 31,000  Level Jacksonville Center
Thu 03:36:39 PM 28.3939 -86.9744 109° East 486 559 31,000  Level Jacksonville Center
Thu 03:37:39 PM 28.3525 -86.8289 108° East 488 562 31,000  Level Jacksonville Center
Thu 03:38:39 PM 28.3111 -86.6858 108° East 488 562 31,000 -50 Level Jacksonville Center
Thu 03:39:39 PM 28.2653 -86.5333 109° East 494 568 30,900  Descending Jacksonville Center
Thu 03:40:39 PM 28.2214 -86.3833 108° East 494 568 31,000  Climbing Jacksonville Center
Thu 03:41:39 PM 28.1794 -86.2408 108° East 494 568 30,900 -50 Descending Jacksonville Center
Thu 03:42:39 PM 28.1353 -86.0911 108° East 489 563 30,900 50 Level Jacksonville Center
Thu 03:43:39 PM 28.0908 -85.9436 109° East 489 563 31,000 50 Climbing Jacksonville Center
Thu 03:44:39 PM 28.0464 -85.7919 108° East 495 570 31,000 -50 Level Jacksonville Center
Thu 03:45:39 PM 28.0017 -85.6403 108° East 495 570 30,900  Descending Jacksonville Center
Thu 03:46:39 PM 27.9547 -85.4908 110° East 495 570 31,000  Climbing Jacksonville Center
Thu 03:48:46 PM 27.8769 -85.1989 107° East 500 575 30,900  Descending Miami Center
Thu 03:49:46 PM 27.8447 -85.0347 102° East 491 565 31,000 50 Climbing Miami Center
Thu 03:50:46 PM 27.8167 -84.8686 101° East 496 571 31,000  Level Miami Center
Thu 03:51:46 PM 27.7897 -84.7122 101° East 496 571 31,000  Level Miami Center
Thu 03:52:46 PM 27.7586 -84.5578 103° East 496 571 31,000  Level Miami Center
Thu 03:53:46 PM 27.7375 -84.4039 99° East 496 571 31,000  Level Miami Center
Thu 03:54:46 PM 27.7100 -84.2500 101° East 496 571 31,000 -50 Level Miami Center
Thu 03:55:46 PM 27.6825 -84.0958 101° East 491 565 30,900 -50 Descending Miami Center
Thu 03:56:46 PM 27.6544 -83.9467 102° East 491 565 30,900 50 Level Miami Center
Thu 03:57:46 PM 27.6286 -83.7928 101° East 491 565 31,000 50 Climbing Miami Center
Thu 03:58:46 PM 27.6042 -83.6461 101° East 491 565 31,000  Level Miami Center
Thu 03:59:46 PM 27.5778 -83.4972 101° East 485 558 31,000 -250 Level Miami Center
Thu 04:00:46 PM 27.5278 -83.3586 112° Southeast 485 558 30,500 -750 Descending Miami Center
Thu 04:01:46 PM 27.4608 -83.2261 120° Southeast 476 548 29,500 -1,000 Descending Miami Center
Thu 04:02:46 PM 27.3956 -83.0964 120° Southeast 481 554 28,500 -1,000 Descending Miami Center
Thu 04:03:46 PM 27.3342 -82.9717 119° Southeast 475 547 27,500 -950 Descending Miami Center
Thu 04:04:46 PM 27.2742 -82.8586 121° Southeast 470 541 26,600 -1,000 Descending Miami Center
Thu 04:05:46 PM 27.2144 -82.7367 119° Southeast 456 525 25,500 -1,050 Descending Miami Center
Thu 04:06:46 PM 27.1567 -82.6194 119° Southeast 444 511 24,500 -800 Descending Miami Center
Thu 04:07:46 PM 27.0906 -82.4903 120° Southeast 433 498 23,900 -650 Descending Miami Center
Thu 04:08:46 PM 27.0344 -82.3756 119° Southeast 427 491 23,200 -800 Descending Miami Center
Thu 04:09:46 PM 26.9803 -82.2683 120° Southeast 432 497 22,300 -950 Descending Miami Center
Thu 04:10:46 PM 26.9217 -82.1561 120° Southeast 432 497 21,300 -1,000 Descending Miami Center
Thu 04:11:46 PM 26.8650 -82.0464 120° Southeast 426 490 20,300 -1,000 Descending Miami Center
Thu 04:12:46 PM 26.8064 -81.9344 120° Southeast 419 482 19,300 -650 Descending Miami Center
Thu 04:13:46 PM 26.7519 -81.8253 119° Southeast 412 474 19,000 -150 Descending Miami Center
Thu 04:14:46 PM 26.6969 -81.7206 120° Southeast 407 468 19,000  Level Miami Center
Thu 04:15:46 PM 26.7014 -81.5836 88° East 377 434 19,000 -500 Level Miami Center
Thu 04:16:46 PM 26.7281 -81.4661 76° East 370 426 18,000 -1,050 Descending Miami Center
Thu 04:17:46 PM 26.7544 -81.3556 75° East 370 426 16,900 -1,700 Descending Miami Center
Thu 04:18:46 PM 26.7786 -81.2542 75° East 375 432 14,600 -1,950 Descending Miami Center
Thu 04:19:46 PM 26.8047 -81.1436 75° East 375 432 13,000 -1,700 Descending Miami Center
Thu 04:20:46 PM 26.8228 -81.0256 80° East 360 414 11,200 -1,500 Descending Miami Center
Thu 04:21:46 PM 26.8319 -80.9258 84° East 339 390 10,000 -600 Descending Miami Center
Thu 04:22:46 PM 26.8303 -80.8397 91° East 312 359 10,000 -350 Level Miami Center
Thu 04:23:46 PM 26.8014 -80.7503 110° East 297 342 9,300 -1,050 Descending Miami Center
Thu 04:24:46 PM 26.7658 -80.6653 115° Southeast 302 348 7,900 -1,350 Descending Miami Center
Thu 04:25:46 PM 26.7350 -80.5714 110° East 297 342 6,600 -1,100 Descending Miami Center
Thu 04:26:46 PM 26.7056 -80.5006 115° Southeast 290 334 5,700 -1,000 Descending Miami Center
Thu 04:27:46 PM 26.6972 -80.4144 96° East 258 297 4,600 -950 Descending Miami Center
Thu 04:28:46 PM 26.6906 -80.3375 96° East 253 291 3,800 -800 Descending Miami Center

Login

Don't have an account? Register now (free) for customized features, flight alerts, and more!